sensor_id;sensor_type;location;lat;lon;timestamp;temperature;humidity
24802;DHT22;12898;50.520;12.152;2023-02-28T00:01:09;-3.20;99.90
24802;DHT22;12898;50.520;12.152;2023-02-28T00:03:34;-3.20;99.90
24802;DHT22;12898;50.520;12.152;2023-02-28T00:06:03;-3.20;99.90
24802;DHT22;12898;50.520;12.152;2023-02-28T00:08:30;-3.30;99.90
24802;DHT22;12898;50.520;12.152;2023-02-28T00:10:55;-3.30;99.90
24802;DHT22;12898;50.520;12.152;2023-02-28T00:13:21;-3.30;99.90
24802;DHT22;12898;50.520;12.152;2023-02-28T00:15:47;-3.30;99.90
24802;DHT22;12898;50.520;12.152;2023-02-28T00:18:12;-3.30;99.90
24802;DHT22;12898;50.520;12.152;2023-02-28T00:20:38;-3.30;99.90
24802;DHT22;12898;50.520;12.152;2023-02-28T00:23:04;-3.30;99.90
24802;DHT22;12898;50.520;12.152;2023-02-28T00:25:30;-3.30;99.90
24802;DHT22;12898;50.520;12.152;2023-02-28T00:27:55;-3.30;99.90
24802;DHT22;12898;50.520;12.152;2023-02-28T00:30:22;-3.30;99.90
24802;DHT22;12898;50.520;12.152;2023-02-28T00:32:49;-3.40;99.90
24802;DHT22;12898;50.520;12.152;2023-02-28T00:35:17;-3.40;99.90
24802;DHT22;12898;50.520;12.152;2023-02-28T00:37:43;-3.40;99.90
24802;DHT22;12898;50.520;12.152;2023-02-28T00:40:09;-3.40;99.90
24802;DHT22;12898;50.520;12.152;2023-02-28T00:42:36;-3.40;99.90
24802;DHT22;12898;50.520;12.152;2023-02-28T00:45:03;-3.40;99.90
24802;DHT22;12898;50.520;12.152;2023-02-28T00:47:30;-3.40;99.90
24802;DHT22;12898;50.520;12.152;2023-02-28T00:49:56;-3.40;99.90
24802;DHT22;12898;50.520;12.152;2023-02-28T00:52:21;-3.40;99.90
24802;DHT22;12898;50.520;12.152;2023-02-28T00:54:47;-3.40;99.90
24802;DHT22;12898;50.520;12.152;2023-02-28T00:57:13;-3.40;99.90
24802;DHT22;12898;50.520;12.152;2023-02-28T00:59:39;-3.50;99.90
24802;DHT22;12898;50.520;12.152;2023-02-28T01:02:04;-3.50;99.90
24802;DHT22;12898;50.520;12.152;2023-02-28T01:04:30;-3.60;99.90
24802;DHT22;12898;50.520;12.152;2023-02-28T01:06:56;-3.60;99.90
24802;DHT22;12898;50.520;12.152;2023-02-28T01:09:21;-3.70;99.90
24802;DHT22;12898;50.520;12.152;2023-02-28T01:11:47;-3.70;99.90
24802;DHT22;12898;50.520;12.152;2023-02-28T01:14:14;-3.80;99.90
24802;DHT22;12898;50.520;12.152;2023-02-28T01:16:41;-3.80;99.90
24802;DHT22;12898;50.520;12.152;2023-02-28T01:19:07;-3.80;99.90
24802;DHT22;12898;50.520;12.152;2023-02-28T01:21:33;-3.80;99.90
24802;DHT22;12898;50.520;12.152;2023-02-28T01:24:01;-3.90;99.90
24802;DHT22;12898;50.520;12.152;2023-02-28T01:26:27;-3.90;99.90
24802;DHT22;12898;50.520;12.152;2023-02-28T01:28:53;-3.80;99.90
24802;DHT22;12898;50.520;12.152;2023-02-28T01:31:20;-3.80;99.90
24802;DHT22;12898;50.520;12.152;2023-02-28T01:33:47;-3.80;99.90
24802;DHT22;12898;50.520;12.152;2023-02-28T01:36:18;-3.80;99.90
24802;DHT22;12898;50.520;12.152;2023-02-28T01:38:46;-3.70;99.90
24802;DHT22;12898;50.520;12.152;2023-02-28T01:46:11;-3.70;99.90
24802;DHT22;12898;50.520;12.152;2023-02-28T01:48:44;-3.70;99.90
24802;DHT22;12898;50.520;12.152;2023-02-28T01:51:42;-3.70;99.90
24802;DHT22;12898;50.520;12.152;2023-02-28T01:54:16;-3.70;99.90
24802;DHT22;12898;50.520;12.152;2023-02-28T01:56:48;-3.70;99.90
24802;DHT22;12898;50.520;12.152;2023-02-28T01:59:26;-3.80;99.90
24802;DHT22;12898;50.520;12.152;2023-02-28T02:01:55;-3.80;99.90
24802;DHT22;12898;50.520;12.152;2023-02-28T02:04:24;-3.80;99.90
24802;DHT22;12898;50.520;12.152;2023-02-28T02:06:52;-3.80;99.90
24802;DHT22;12898;50.520;12.152;2023-02-28T02:09:17;-3.80;99.90
24802;DHT22;12898;50.520;12.152;2023-02-28T02:11:44;-3.80;99.90
24802;DHT22;12898;50.520;12.152;2023-02-28T02:14:23;-3.80;99.90
24802;DHT22;12898;50.520;12.152;2023-02-28T02:25:49;-4.00;99.90
24802;DHT22;12898;50.520;12.152;2023-02-28T02:28:52;-4.20;99.90
24802;DHT22;12898;50.520;12.152;2023-02-28T02:32:32;-4.20;99.90
24802;DHT22;12898;50.520;12.152;2023-02-28T02:35:24;-4.30;99.90
24802;DHT22;12898;50.520;12.152;2023-02-28T02:43:54;-4.40;99.90
24802;DHT22;12898;50.520;12.152;2023-02-28T02:46:32;-4.40;99.90
24802;DHT22;12898;50.520;12.152;2023-02-28T02:49:01;-4.50;99.90
24802;DHT22;12898;50.520;12.152;2023-02-28T02:51:31;-4.50;99.90
24802;DHT22;12898;50.520;12.152;2023-02-28T02:54:32;-4.50;99.90
24802;DHT22;12898;50.520;12.152;2023-02-28T02:57:05;-4.50;99.90
24802;DHT22;12898;50.520;12.152;2023-02-28T02:59:35;-4.50;99.90
24802;DHT22;12898;50.520;12.152;2023-02-28T03:02:05;-4.40;99.90
24802;DHT22;12898;50.520;12.152;2023-02-28T03:04:37;-4.40;99.90
24802;DHT22;12898;50.520;12.152;2023-02-28T03:07:06;-4.40;99.90
24802;DHT22;12898;50.520;12.152;2023-02-28T03:09:33;-4.40;99.90
24802;DHT22;12898;50.520;12.152;2023-02-28T03:12:01;-4.40;99.90
24802;DHT22;12898;50.520;12.152;2023-02-28T03:20:35;-4.20;99.90
24802;DHT22;12898;50.520;12.152;2023-02-28T03:23:23;-4.10;99.90
24802;DHT22;12898;50.520;12.152;2023-02-28T03:26:03;-4.10;99.90
24802;DHT22;12898;50.520;12.152;2023-02-28T03:28:41;-3.90;99.90
24802;DHT22;12898;50.520;12.152;2023-02-28T03:31:18;-3.90;99.90
24802;DHT22;12898;50.520;12.152;2023-02-28T03:34:07;-3.90;99.90
24802;DHT22;12898;50.520;12.152;2023-02-28T03:36:53;-3.80;99.90
24802;DHT22;12898;50.520;12.152;2023-02-28T03:39:37;-3.80;99.90
24802;DHT22;12898;50.520;12.152;2023-02-28T03:42:20;-3.80;99.90
24802;DHT22;12898;50.520;12.152;2023-02-28T03:44:53;-3.70;99.90
24802;DHT22;12898;50.520;12.152;2023-02-28T03:47:25;-3.70;99.90
24802;DHT22;12898;50.520;12.152;2023-02-28T03:50:04;-3.70;99.90
24802;DHT22;12898;50.520;12.152;2023-02-28T03:52:36;-3.70;99.90
24802;DHT22;12898;50.520;12.152;2023-02-28T03:55:10;-3.70;99.90
24802;DHT22;12898;50.520;12.152;2023-02-28T03:57:54;-3.70;99.90
24802;DHT22;12898;50.520;12.152;2023-02-28T04:00:28;-3.70;99.90
24802;DHT22;12898;50.520;12.152;2023-02-28T04:02:55;-3.70;99.90
24802;DHT22;12898;50.520;12.152;2023-02-28T04:05:22;-3.80;99.90
24802;DHT22;12898;50.520;12.152;2023-02-28T04:07:48;-3.90;99.90
24802;DHT22;12898;50.520;12.152;2023-02-28T04:10:15;-4.00;99.90
24802;DHT22;12898;50.520;12.152;2023-02-28T04:12:41;-4.10;99.90
24802;DHT22;12898;50.520;12.152;2023-02-28T04:15:07;-4.20;99.90
24802;DHT22;12898;50.520;12.152;2023-02-28T04:17:33;-4.30;99.90
24802;DHT22;12898;50.520;12.152;2023-02-28T04:19:59;-4.40;99.90
24802;DHT22;12898;50.520;12.152;2023-02-28T04:22:24;-4.60;99.90
24802;DHT22;12898;50.520;12.152;2023-02-28T04:24:51;-4.70;99.90
24802;DHT22;12898;50.520;12.152;2023-02-28T04:27:18;-4.80;99.90
24802;DHT22;12898;50.520;12.152;2023-02-28T04:29:45;-4.90;99.90
24802;DHT22;12898;50.520;12.152;2023-02-28T04:32:10;-4.90;99.90
24802;DHT22;12898;50.520;12.152;2023-02-28T04:34:36;-5.00;99.90
24802;DHT22;12898;50.520;12.152;2023-02-28T04:37:02;-5.10;99.90
24802;DHT22;12898;50.520;12.152;2023-02-28T04:39:28;-5.20;99.90
24802;DHT22;12898;50.520;12.152;2023-02-28T04:41:55;-5.20;99.90
24802;DHT22;12898;50.520;12.152;2023-02-28T04:44:21;-5.30;99.90
24802;DHT22;12898;50.520;12.152;2023-02-28T04:46:48;-5.40;99.90
24802;DHT22;12898;50.520;12.152;2023-02-28T04:49:14;-5.40;99.90
24802;DHT22;12898;50.520;12.152;2023-02-28T04:51:41;-5.50;99.90
24802;DHT22;12898;50.520;12.152;2023-02-28T04:54:07;-5.50;99.90
24802;DHT22;12898;50.520;12.152;2023-02-28T04:56:33;-5.50;99.90
24802;DHT22;12898;50.520;12.152;2023-02-28T04:58:59;-5.60;99.90
24802;DHT22;12898;50.520;12.152;2023-02-28T05:01:25;-5.60;99.90
24802;DHT22;12898;50.520;12.152;2023-02-28T05:03:54;-5.60;99.90
24802;DHT22;12898;50.520;12.152;2023-02-28T05:06:23;-5.60;99.90
24802;DHT22;12898;50.520;12.152;2023-02-28T05:08:50;-5.60;99.90
24802;DHT22;12898;50.520;12.152;2023-02-28T05:11:19;-5.50;99.90
24802;DHT22;12898;50.520;12.152;2023-02-28T05:13:48;-5.40;99.90
24802;DHT22;12898;50.520;12.152;2023-02-28T05:16:15;-5.20;99.90
24802;DHT22;12898;50.520;12.152;2023-02-28T05:18:40;-5.20;99.90
24802;DHT22;12898;50.520;12.152;2023-02-28T05:21:22;-5.10;99.90
24802;DHT22;12898;50.520;12.152;2023-02-28T05:23:51;-4.90;99.90
24802;DHT22;12898;50.520;12.152;2023-02-28T05:26:17;-4.70;99.90
24802;DHT22;12898;50.520;12.152;2023-02-28T05:28:43;-4.60;99.90
24802;DHT22;12898;50.520;12.152;2023-02-28T05:31:13;-4.60;99.90
24802;DHT22;12898;50.520;12.152;2023-02-28T05:33:39;-4.60;99.90
24802;DHT22;12898;50.520;12.152;2023-02-28T05:36:05;-4.60;99.90
24802;DHT22;12898;50.520;12.152;2023-02-28T05:38:31;-4.50;99.90
24802;DHT22;12898;50.520;12.152;2023-02-28T05:40:57;-4.50;99.90
24802;DHT22;12898;50.520;12.152;2023-02-28T05:43:22;-4.40;99.90
24802;DHT22;12898;50.520;12.152;2023-02-28T05:45:48;-4.30;99.90
24802;DHT22;12898;50.520;12.152;2023-02-28T05:48:14;-4.30;99.90
24802;DHT22;12898;50.520;12.152;2023-02-28T05:50:40;-4.30;99.90
24802;DHT22;12898;50.520;12.152;2023-02-28T05:53:07;-4.30;99.90
24802;DHT22;12898;50.520;12.152;2023-02-28T05:55:33;-4.20;99.90
24802;DHT22;12898;50.520;12.152;2023-02-28T05:58:01;-4.20;99.90
24802;DHT22;12898;50.520;12.152;2023-02-28T06:00:26;-4.20;99.90
24802;DHT22;12898;50.520;12.152;2023-02-28T06:02:53;-4.20;99.90
24802;DHT22;12898;50.520;12.152;2023-02-28T06:05:21;-4.20;99.90
24802;DHT22;12898;50.520;12.152;2023-02-28T06:07:47;-4.10;99.90
24802;DHT22;12898;50.520;12.152;2023-02-28T06:10:13;-4.10;99.90
24802;DHT22;12898;50.520;12.152;2023-02-28T06:12:40;-4.10;99.90
24802;DHT22;12898;50.520;12.152;2023-02-28T06:15:09;-4.10;99.90
24802;DHT22;12898;50.520;12.152;2023-02-28T06:17:37;-4.20;99.90
24802;DHT22;12898;50.520;12.152;2023-02-28T06:20:04;-4.20;99.90
24802;DHT22;12898;50.520;12.152;2023-02-28T06:22:31;-4.30;99.90
24802;DHT22;12898;50.520;12.152;2023-02-28T06:24:57;-4.30;99.90
24802;DHT22;12898;50.520;12.152;2023-02-28T06:27:23;-4.30;99.90
24802;DHT22;12898;50.520;12.152;2023-02-28T06:29:52;-4.40;99.90
24802;DHT22;12898;50.520;12.152;2023-02-28T06:32:19;-4.30;99.90
24802;DHT22;12898;50.520;12.152;2023-02-28T06:34:45;-4.30;99.90
24802;DHT22;12898;50.520;12.152;2023-02-28T06:37:10;-4.30;99.90
24802;DHT22;12898;50.520;12.152;2023-02-28T06:39:36;-4.20;99.90
24802;DHT22;12898;50.520;12.152;2023-02-28T06:42:02;-4.20;99.90
24802;DHT22;12898;50.520;12.152;2023-02-28T06:44:27;-4.20;99.90
24802;DHT22;12898;50.520;12.152;2023-02-28T06:47:00;-4.20;99.90
24802;DHT22;12898;50.520;12.152;2023-02-28T06:49:29;-4.20;99.90
24802;DHT22;12898;50.520;12.152;2023-02-28T06:51:55;-4.20;99.90
24802;DHT22;12898;50.520;12.152;2023-02-28T06:54:21;-4.10;99.90
24802;DHT22;12898;50.520;12.152;2023-02-28T06:56:47;-4.10;99.90
24802;DHT22;12898;50.520;12.152;2023-02-28T06:59:13;-4.10;99.90
24802;DHT22;12898;50.520;12.152;2023-02-28T07:01:39;-4.10;99.90
24802;DHT22;12898;50.520;12.152;2023-02-28T07:04:06;-4.00;99.90
24802;DHT22;12898;50.520;12.152;2023-02-28T07:06:32;-4.00;99.90
24802;DHT22;12898;50.520;12.152;2023-02-28T07:08:58;-3.90;99.90
24802;DHT22;12898;50.520;12.152;2023-02-28T07:11:26;-3.80;99.90
24802;DHT22;12898;50.520;12.152;2023-02-28T07:13:56;-3.70;99.90
24802;DHT22;12898;50.520;12.152;2023-02-28T07:16:22;-3.50;99.90
24802;DHT22;12898;50.520;12.152;2023-02-28T07:18:49;-3.40;99.90
24802;DHT22;12898;50.520;12.152;2023-02-28T07:21:15;-3.20;99.90
24802;DHT22;12898;50.520;12.152;2023-02-28T07:23:41;-3.00;99.90
24802;DHT22;12898;50.520;12.152;2023-02-28T07:26:11;-2.70;99.90
24802;DHT22;12898;50.520;12.152;2023-02-28T07:28:40;-2.50;99.90
24802;DHT22;12898;50.520;12.152;2023-02-28T07:31:08;-2.40;99.90
24802;DHT22;12898;50.520;12.152;2023-02-28T07:33:35;-2.20;99.90
24802;DHT22;12898;50.520;12.152;2023-02-28T07:36:07;-2.10;99.90
24802;DHT22;12898;50.520;12.152;2023-02-28T07:38:35;-2.00;99.90
24802;DHT22;12898;50.520;12.152;2023-02-28T07:41:02;-1.90;99.90
24802;DHT22;12898;50.520;12.152;2023-02-28T07:43:30;-1.70;99.90
24802;DHT22;12898;50.520;12.152;2023-02-28T07:46:01;-1.60;99.90
24802;DHT22;12898;50.520;12.152;2023-02-28T07:48:31;-1.40;99.90
24802;DHT22;12898;50.520;12.152;2023-02-28T07:50:58;-1.30;99.90
24802;DHT22;12898;50.520;12.152;2023-02-28T07:53:24;-1.10;99.90
24802;DHT22;12898;50.520;12.152;2023-02-28T07:55:50;-1.00;99.90
24802;DHT22;12898;50.520;12.152;2023-02-28T07:58:16;-0.80;99.90
24802;DHT22;12898;50.520;12.152;2023-02-28T08:00:42;-0.60;99.90
24802;DHT22;12898;50.520;12.152;2023-02-28T08:03:11;-0.40;99.90
24802;DHT22;12898;50.520;12.152;2023-02-28T08:05:41;-0.30;99.90
24802;DHT22;12898;50.520;12.152;2023-02-28T08:08:08;-0.10;99.90
24802;DHT22;12898;50.520;12.152;2023-02-28T08:10:34;0.10;99.90
24802;DHT22;12898;50.520;12.152;2023-02-28T08:13:00;0.30;99.90
24802;DHT22;12898;50.520;12.152;2023-02-28T08:15:26;0.40;99.90
24802;DHT22;12898;50.520;12.152;2023-02-28T08:17:52;0.60;99.90
24802;DHT22;12898;50.520;12.152;2023-02-28T08:20:17;0.70;99.90
24802;DHT22;12898;50.520;12.152;2023-02-28T08:22:43;0.90;99.90
24802;DHT22;12898;50.520;12.152;2023-02-28T08:25:09;1.10;99.90
24802;DHT22;12898;50.520;12.152;2023-02-28T08:27:36;1.30;99.90
24802;DHT22;12898;50.520;12.152;2023-02-28T08:30:02;1.40;99.90
24802;DHT22;12898;50.520;12.152;2023-02-28T08:32:28;1.50;99.90
24802;DHT22;12898;50.520;12.152;2023-02-28T08:34:54;1.70;99.90
24802;DHT22;12898;50.520;12.152;2023-02-28T08:37:20;1.80;99.90
24802;DHT22;12898;50.520;12.152;2023-02-28T08:39:45;1.80;99.90
24802;DHT22;12898;50.520;12.152;2023-02-28T08:42:11;2.00;99.90
24802;DHT22;12898;50.520;12.152;2023-02-28T08:44:37;2.10;99.90
24802;DHT22;12898;50.520;12.152;2023-02-28T08:47:03;2.20;99.90
24802;DHT22;12898;50.520;12.152;2023-02-28T08:49:28;2.30;99.90
24802;DHT22;12898;50.520;12.152;2023-02-28T08:51:54;2.40;99.90
24802;DHT22;12898;50.520;12.152;2023-02-28T08:54:22;2.50;99.90
24802;DHT22;12898;50.520;12.152;2023-02-28T08:56:48;2.60;99.90
24802;DHT22;12898;50.520;12.152;2023-02-28T08:59:14;2.70;99.90
24802;DHT22;12898;50.520;12.152;2023-02-28T09:01:40;2.80;99.90
24802;DHT22;12898;50.520;12.152;2023-02-28T09:04:07;3.00;99.90
24802;DHT22;12898;50.520;12.152;2023-02-28T09:06:34;3.10;99.90
24802;DHT22;12898;50.520;12.152;2023-02-28T09:09:00;3.30;99.90
24802;DHT22;12898;50.520;12.152;2023-02-28T09:11:27;3.40;99.90
24802;DHT22;12898;50.520;12.152;2023-02-28T09:13:53;3.40;99.90
24802;DHT22;12898;50.520;12.152;2023-02-28T09:16:21;3.50;99.10
24802;DHT22;12898;50.520;12.152;2023-02-28T09:18:47;3.60;99.90
24802;DHT22;12898;50.520;12.152;2023-02-28T09:21:15;3.60;99.20
24802;DHT22;12898;50.520;12.152;2023-02-28T09:23:47;3.70;98.60
24802;DHT22;12898;50.520;12.152;2023-02-28T09:26:18;3.70;98.60
24802;DHT22;12898;50.520;12.152;2023-02-28T09:28:48;3.80;97.80
24802;DHT22;12898;50.520;12.152;2023-02-28T09:31:17;4.00;98.20
24802;DHT22;12898;50.520;12.152;2023-02-28T09:33:51;4.20;97.00
24802;DHT22;12898;50.520;12.152;2023-02-28T09:36:21;4.10;94.50
24802;DHT22;12898;50.520;12.152;2023-02-28T09:38:48;4.20;97.00
24802;DHT22;12898;50.520;12.152;2023-02-28T09:41:22;4.20;94.00
24802;DHT22;12898;50.520;12.152;2023-02-28T09:43:55;4.30;93.40
24802;DHT22;12898;50.520;12.152;2023-02-28T09:46:28;4.40;92.60
24802;DHT22;12898;50.520;12.152;2023-02-28T09:48:57;4.50;92.30
24802;DHT22;12898;50.520;12.152;2023-02-28T09:51:44;4.60;93.60
24802;DHT22;12898;50.520;12.152;2023-02-28T09:54:15;4.80;93.90
24802;DHT22;12898;50.520;12.152;2023-02-28T09:56:54;5.00;92.50
24802;DHT22;12898;50.520;12.152;2023-02-28T09:59:25;5.20;93.00
24802;DHT22;12898;50.520;12.152;2023-02-28T10:05:05;5.30;91.10
24802;DHT22;12898;50.520;12.152;2023-02-28T10:07:56;5.50;90.70
24802;DHT22;12898;50.520;12.152;2023-02-28T10:10:45;5.50;89.00
24802;DHT22;12898;50.520;12.152;2023-02-28T10:13:36;5.60;90.30
24802;DHT22;12898;50.520;12.152;2023-02-28T10:16:27;5.70;85.50
24802;DHT22;12898;50.520;12.152;2023-02-28T10:19:12;5.70;90.60
24802;DHT22;12898;50.520;12.152;2023-02-28T10:21:49;5.90;88.80
24802;DHT22;12898;50.520;12.152;2023-02-28T10:24:26;5.90;86.10
24802;DHT22;12898;50.520;12.152;2023-02-28T10:27:17;5.90;89.00
24802;DHT22;12898;50.520;12.152;2023-02-28T10:29:46;6.00;87.40
24802;DHT22;12898;50.520;12.152;2023-02-28T10:32:17;5.90;85.30
24802;DHT22;12898;50.520;12.152;2023-02-28T10:34:44;6.00;84.40
24802;DHT22;12898;50.520;12.152;2023-02-28T10:37:12;5.90;85.00
24802;DHT22;12898;50.520;12.152;2023-02-28T10:39:41;5.80;86.30
24802;DHT22;12898;50.520;12.152;2023-02-28T10:42:29;5.90;86.40
24802;DHT22;12898;50.520;12.152;2023-02-28T10:45:13;6.00;82.70
24802;DHT22;12898;50.520;12.152;2023-02-28T10:47:53;5.90;84.50
24802;DHT22;12898;50.520;12.152;2023-02-28T10:56:19;6.10;80.30
24802;DHT22;12898;50.520;12.152;2023-02-28T11:01:45;6.10;76.30
24802;DHT22;12898;50.520;12.152;2023-02-28T11:09:49;6.40;79.10
24802;DHT22;12898;50.520;12.152;2023-02-28T11:12:37;6.30;81.10
24802;DHT22;12898;50.520;12.152;2023-02-28T11:15:07;6.40;82.20
24802;DHT22;12898;50.520;12.152;2023-02-28T11:17:54;6.50;80.30
24802;DHT22;12898;50.520;12.152;2023-02-28T11:20:24;6.60;80.70
24802;DHT22;12898;50.520;12.152;2023-02-28T11:22:52;6.70;80.40
24802;DHT22;12898;50.520;12.152;2023-02-28T11:28:01;6.70;79.80
24802;DHT22;12898;50.520;12.152;2023-02-28T11:30:31;6.90;82.50
24802;DHT22;12898;50.520;12.152;2023-02-28T11:35:53;6.80;80.80
24802;DHT22;12898;50.520;12.152;2023-02-28T11:38:24;6.80;77.00
24802;DHT22;12898;50.520;12.152;2023-02-28T11:43:40;6.90;81.40
24802;DHT22;12898;50.520;12.152;2023-02-28T11:52:42;6.90;79.70
24802;DHT22;12898;50.520;12.152;2023-02-28T11:55:01;7.10;77.10
24802;DHT22;12898;50.520;12.152;2023-02-28T11:57:51;7.40;76.70
24802;DHT22;12898;50.520;12.152;2023-02-28T12:03:01;7.40;76.60
24802;DHT22;12898;50.520;12.152;2023-02-28T12:05:43;7.40;73.70
24802;DHT22;12898;50.520;12.152;2023-02-28T12:11:23;7.50;76.00
24802;DHT22;12898;50.520;12.152;2023-02-28T12:14:25;7.70;75.70
24802;DHT22;12898;50.520;12.152;2023-02-28T12:20:25;7.90;75.40
24802;DHT22;12898;50.520;12.152;2023-02-28T12:29:44;7.70;74.30
24802;DHT22;12898;50.520;12.152;2023-02-28T12:32:18;7.80;75.00
24802;DHT22;12898;50.520;12.152;2023-02-28T12:34:53;7.90;74.40
24802;DHT22;12898;50.520;12.152;2023-02-28T12:40:13;8.10;72.60
24802;DHT22;12898;50.520;12.152;2023-02-28T12:42:48;8.10;73.10
24802;DHT22;12898;50.520;12.152;2023-02-28T12:45:44;8.00;72.60
24802;DHT22;12898;50.520;12.152;2023-02-28T12:48:17;8.00;71.50
24802;DHT22;12898;50.520;12.152;2023-02-28T12:50:51;7.80;71.90
24802;DHT22;12898;50.520;12.152;2023-02-28T12:53:31;7.80;73.10
24802;DHT22;12898;50.520;12.152;2023-02-28T12:56:14;7.80;74.20
24802;DHT22;12898;50.520;12.152;2023-02-28T12:58:54;7.90;74.30
24802;DHT22;12898;50.520;12.152;2023-02-28T13:05:25;7.90;73.30
24802;DHT22;12898;50.520;12.152;2023-02-28T13:11:33;7.70;72.40
24802;DHT22;12898;50.520;12.152;2023-02-28T13:14:24;7.80;74.60
24802;DHT22;12898;50.520;12.152;2023-02-28T13:16:56;7.70;74.30
24802;DHT22;12898;50.520;12.152;2023-02-28T13:19:30;7.70;72.50
24802;DHT22;12898;50.520;12.152;2023-02-28T13:21:59;7.60;75.00
24802;DHT22;12898;50.520;12.152;2023-02-28T13:24:44;7.60;73.20
24802;DHT22;12898;50.520;12.152;2023-02-28T13:29:50;7.80;74.20
24802;DHT22;12898;50.520;12.152;2023-02-28T13:42:32;7.60;71.60
24802;DHT22;12898;50.520;12.152;2023-02-28T13:48:03;7.70;74.50
24802;DHT22;12898;50.520;12.152;2023-02-28T13:50:45;7.60;73.80
24802;DHT22;12898;50.520;12.152;2023-02-28T14:01:43;7.70;73.30
24802;DHT22;12898;50.520;12.152;2023-02-28T14:07:07;7.60;74.30
24802;DHT22;12898;50.520;12.152;2023-02-28T14:09:40;7.60;75.00
24802;DHT22;12898;50.520;12.152;2023-02-28T14:15:44;7.20;73.80
24802;DHT22;12898;50.520;12.152;2023-02-28T14:20:53;7.30;74.30
24802;DHT22;12898;50.520;12.152;2023-02-28T14:23:39;7.30;74.40
24802;DHT22;12898;50.520;12.152;2023-02-28T14:32:30;7.50;74.60
24802;DHT22;12898;50.520;12.152;2023-02-28T14:37:19;7.30;72.60
24802;DHT22;12898;50.520;12.152;2023-02-28T14:39:46;7.10;74.30
24802;DHT22;12898;50.520;12.152;2023-02-28T14:42:39;7.10;74.80
24802;DHT22;12898;50.520;12.152;2023-02-28T14:45:20;6.90;73.90
24802;DHT22;12898;50.520;12.152;2023-02-28T14:47:49;6.90;76.10
24802;DHT22;12898;50.520;12.152;2023-02-28T14:50:22;6.80;77.30
24802;DHT22;12898;50.520;12.152;2023-02-28T14:52:53;6.80;76.80
24802;DHT22;12898;50.520;12.152;2023-02-28T14:55:24;6.60;74.70
24802;DHT22;12898;50.520;12.152;2023-02-28T14:58:03;6.20;75.70
24802;DHT22;12898;50.520;12.152;2023-02-28T15:00:36;5.80;78.30
24802;DHT22;12898;50.520;12.152;2023-02-28T15:03:30;5.80;80.40
24802;DHT22;12898;50.520;12.152;2023-02-28T15:06:11;5.80;79.50
24802;DHT22;12898;50.520;12.152;2023-02-28T15:08:39;5.80;77.70
24802;DHT22;12898;50.520;12.152;2023-02-28T15:11:08;5.90;78.30
24802;DHT22;12898;50.520;12.152;2023-02-28T15:13:41;5.90;79.80
24802;DHT22;12898;50.520;12.152;2023-02-28T15:16:15;5.80;80.00
24802;DHT22;12898;50.520;12.152;2023-02-28T15:21:34;5.70;77.50
24802;DHT22;12898;50.520;12.152;2023-02-28T15:24:03;5.50;78.20
24802;DHT22;12898;50.520;12.152;2023-02-28T15:26:38;5.30;81.50
24802;DHT22;12898;50.520;12.152;2023-02-28T15:29:15;5.20;81.60
24802;DHT22;12898;50.520;12.152;2023-02-28T15:31:45;5.10;81.70
24802;DHT22;12898;50.520;12.152;2023-02-28T15:34:24;4.90;82.60
24802;DHT22;12898;50.520;12.152;2023-02-28T15:36:53;4.90;82.00
24802;DHT22;12898;50.520;12.152;2023-02-28T15:39:22;4.80;86.20
24802;DHT22;12898;50.520;12.152;2023-02-28T15:41:49;4.70;85.40
24802;DHT22;12898;50.520;12.152;2023-02-28T15:44:30;4.60;86.00
24802;DHT22;12898;50.520;12.152;2023-02-28T15:47:19;4.50;85.70
24802;DHT22;12898;50.520;12.152;2023-02-28T15:49:57;4.30;87.80
24802;DHT22;12898;50.520;12.152;2023-02-28T15:52:34;4.20;86.80
24802;DHT22;12898;50.520;12.152;2023-02-28T15:55:15;4.00;88.00
24802;DHT22;12898;50.520;12.152;2023-02-28T15:57:44;3.80;88.60
24802;DHT22;12898;50.520;12.152;2023-02-28T16:00:13;3.70;90.50
24802;DHT22;12898;50.520;12.152;2023-02-28T16:02:41;3.40;89.60
24802;DHT22;12898;50.520;12.152;2023-02-28T16:07:34;3.00;92.00
24802;DHT22;12898;50.520;12.152;2023-02-28T16:10:00;2.90;93.20
24802;DHT22;12898;50.520;12.152;2023-02-28T16:12:28;2.70;93.40
24802;DHT22;12898;50.520;12.152;2023-02-28T16:14:59;2.60;94.40
24802;DHT22;12898;50.520;12.152;2023-02-28T16:17:31;2.40;94.10
24802;DHT22;12898;50.520;12.152;2023-02-28T16:19:58;2.30;94.70
24802;DHT22;12898;50.520;12.152;2023-02-28T16:22:24;2.20;96.80
24802;DHT22;12898;50.520;12.152;2023-02-28T16:24:50;2.10;96.00
24802;DHT22;12898;50.520;12.152;2023-02-28T16:27:31;1.90;96.30
24802;DHT22;12898;50.520;12.152;2023-02-28T16:29:58;1.80;98.00
24802;DHT22;12898;50.520;12.152;2023-02-28T16:32:24;1.60;97.40
24802;DHT22;12898;50.520;12.152;2023-02-28T16:34:50;1.50;97.40
24802;DHT22;12898;50.520;12.152;2023-02-28T16:37:17;1.30;97.60
24802;DHT22;12898;50.520;12.152;2023-02-28T16:39:44;1.10;98.90
24802;DHT22;12898;50.520;12.152;2023-02-28T16:42:20;0.90;98.80
24802;DHT22;12898;50.520;12.152;2023-02-28T16:44:47;0.80;99.90
24802;DHT22;12898;50.520;12.152;2023-02-28T16:47:13;0.60;99.90
24802;DHT22;12898;50.520;12.152;2023-02-28T16:49:39;0.50;99.90
24802;DHT22;12898;50.520;12.152;2023-02-28T16:52:07;0.40;99.90
24802;DHT22;12898;50.520;12.152;2023-02-28T16:54:33;0.30;99.90
24802;DHT22;12898;50.520;12.152;2023-02-28T16:56:59;0.20;99.90
24802;DHT22;12898;50.520;12.152;2023-02-28T16:59:27;0.10;99.90
24802;DHT22;12898;50.520;12.152;2023-02-28T17:01:54;0.00;99.90
24802;DHT22;12898;50.520;12.152;2023-02-28T17:04:22;-0.10;99.90
24802;DHT22;12898;50.520;12.152;2023-02-28T17:06:47;-0.20;99.90
24802;DHT22;12898;50.520;12.152;2023-02-28T17:09:16;-0.30;99.90
24802;DHT22;12898;50.520;12.152;2023-02-28T17:11:43;-0.40;99.90
24802;DHT22;12898;50.520;12.152;2023-02-28T17:14:10;-0.50;99.90
24802;DHT22;12898;50.520;12.152;2023-02-28T17:16:36;-0.60;99.90
24802;DHT22;12898;50.520;12.152;2023-02-28T17:19:11;-0.60;99.90
24802;DHT22;12898;50.520;12.152;2023-02-28T17:21:38;-0.70;99.90
24802;DHT22;12898;50.520;12.152;2023-02-28T17:24:07;-0.80;99.90
24802;DHT22;12898;50.520;12.152;2023-02-28T17:26:33;-0.90;99.90
24802;DHT22;12898;50.520;12.152;2023-02-28T17:28:58;-0.90;99.90
24802;DHT22;12898;50.520;12.152;2023-02-28T17:31:26;-1.00;99.90
24802;DHT22;12898;50.520;12.152;2023-02-28T17:33:53;-1.10;99.90
24802;DHT22;12898;50.520;12.152;2023-02-28T17:36:25;-1.10;99.90
24802;DHT22;12898;50.520;12.152;2023-02-28T17:38:53;-1.20;99.90
24802;DHT22;12898;50.520;12.152;2023-02-28T17:41:20;-1.20;99.90
24802;DHT22;12898;50.520;12.152;2023-02-28T17:43:46;-1.30;99.90
24802;DHT22;12898;50.520;12.152;2023-02-28T17:46:19;-1.30;99.90
24802;DHT22;12898;50.520;12.152;2023-02-28T17:48:48;-1.30;99.90
24802;DHT22;12898;50.520;12.152;2023-02-28T17:51:14;-1.40;99.90
24802;DHT22;12898;50.520;12.152;2023-02-28T17:53:41;-1.40;99.90
24802;DHT22;12898;50.520;12.152;2023-02-28T17:56:23;-1.50;99.90